Terminal Aerodrome Forecast
Issued by NWS

Home | Current Version | Previous Version | Text Only | Print | Product List | Glossary Off
Versions: 1 2 3 4 5 6 7 8 9 10 11 12 13 14 15 16 17 18 19 20 21 22

000
FTUS43 KGRB 302300
TAFATW
TAF
KATW 302330Z 3100/3124 23006KT P6SM SCT040 OVC060
      TEMPO 3100/3101 6SM -RA SCT025 OVC040
     FM310300 07006KT P6SM -RA SCT025 OVC040
     FM310500 04008KT 6SM -RA SCT010 OVC025
      TEMPO 3105/3107 4SM -RA BKN010
     FM310700 03008KT P6SM SCT015 BKN030
     FM311500 32005KT P6SM BKN025
     FM312000 29005KT P6SM VCSH BKN040=

USA.gov is the U.S. government's official web portal to all federal, state and local government web resources and services.